createdAt,value
2022-10-15T00:01:39.481Z,95
2022-10-15T00:05:04.552Z,95
2022-10-15T00:08:29.733Z,95
2022-10-15T00:11:54.944Z,95
2022-10-15T00:15:20.122Z,95
2022-10-15T00:18:45.287Z,95
2022-10-15T00:22:10.454Z,95
2022-10-15T00:25:35.646Z,94
2022-10-15T00:29:00.860Z,94
2022-10-15T00:32:26.223Z,94
2022-10-15T00:35:51.175Z,94
2022-10-15T00:39:16.385Z,93
2022-10-15T00:42:41.597Z,93
2022-10-15T00:46:06.784Z,94
2022-10-15T00:49:31.929Z,94
2022-10-15T00:52:57.102Z,94
2022-10-15T00:56:22.264Z,94
2022-10-15T00:59:47.442Z,94
2022-10-15T01:03:12.735Z,94
2022-10-15T01:06:37.811Z,94
2022-10-15T01:10:02.964Z,94
2022-10-15T01:13:28.147Z,94
2022-10-15T01:16:53.328Z,94
2022-10-15T01:20:18.523Z,95
2022-10-15T01:23:43.659Z,95
2022-10-15T01:27:08.828Z,96
2022-10-15T01:30:33.996Z,96
2022-10-15T01:33:59.171Z,96
2022-10-15T01:37:24.808Z,96
2022-10-15T01:40:49.525Z,96
2022-10-15T01:44:14.715Z,96
2022-10-15T01:47:39.881Z,96
2022-10-15T01:51:05.618Z,96
2022-10-15T01:54:30.837Z,96
2022-10-15T01:57:56.008Z,96
2022-10-15T02:01:21.221Z,96
2022-10-15T02:04:46.351Z,96
2022-10-15T02:08:11.537Z,96
2022-10-15T02:11:36.747Z,96
2022-10-15T02:15:01.893Z,96
2022-10-15T02:18:27.112Z,96
2022-10-15T02:21:52.280Z,96
2022-10-15T02:25:17.442Z,96
2022-10-15T02:28:42.700Z,96
2022-10-15T02:32:07.835Z,96
2022-10-15T02:35:33.014Z,96
2022-10-15T02:38:58.206Z,96
2022-10-15T02:42:23.569Z,97
2022-10-15T02:45:48.566Z,97
2022-10-15T02:49:13.720Z,97
2022-10-15T02:52:38.903Z,97
2022-10-15T02:56:04.068Z,97
2022-10-15T02:59:29.248Z,96
2022-10-15T03:02:54.427Z,96
2022-10-15T03:06:21.843Z,96
2022-10-15T03:09:47.003Z,96
2022-10-15T03:13:12.176Z,96
2022-10-15T03:16:37.324Z,95
2022-10-15T03:20:02.497Z,95
2022-10-15T03:23:27.679Z,95
2022-10-15T03:26:52.832Z,95
2022-10-15T03:30:18.016Z,95
2022-10-15T03:33:43.200Z,96
2022-10-15T03:37:08.454Z,95
2022-10-15T03:40:33.634Z,96
2022-10-15T03:43:58.806Z,95
2022-10-15T03:47:24.015Z,95
2022-10-15T03:50:49.194Z,95
2022-10-15T03:54:14.387Z,96
2022-10-15T03:57:39.559Z,95
2022-10-15T04:01:04.793Z,96
2022-10-15T04:04:29.922Z,95
2022-10-15T04:07:55.105Z,95
2022-10-15T04:11:20.330Z,95
2022-10-15T04:14:45.464Z,95
2022-10-15T04:18:10.671Z,95
2022-10-15T04:21:35.861Z,95
2022-10-15T04:25:01.032Z,96
2022-10-15T04:28:26.262Z,95
2022-10-15T04:31:51.400Z,95
2022-10-15T04:35:16.584Z,95
2022-10-15T04:38:41.748Z,95
2022-10-15T04:42:06.940Z,95
2022-10-15T04:45:32.158Z,95
2022-10-15T04:48:57.290Z,95
2022-10-15T04:52:22.527Z,95
2022-10-15T04:55:47.714Z,95
2022-10-15T04:59:12.881Z,95
2022-10-15T05:02:38.175Z,95
2022-10-15T05:06:03.237Z,95
2022-10-15T05:09:28.434Z,95
2022-10-15T05:12:55.791Z,95
2022-10-15T05:16:18.803Z,95
2022-10-15T05:19:43.994Z,95
2022-10-15T05:23:09.154Z,95
2022-10-15T05:26:34.336Z,95
2022-10-15T05:29:59.510Z,95
2022-10-15T05:33:24.663Z,95
2022-10-15T05:36:49.865Z,95
2022-10-15T05:40:17.033Z,95
2022-10-15T05:43:41.173Z,95
2022-10-15T05:47:05.396Z,95
2022-10-15T05:50:30.607Z,95
2022-10-15T05:53:55.854Z,95
2022-10-15T05:57:21.014Z,95
2022-10-15T06:00:46.228Z,95
2022-10-15T06:04:11.426Z,95
2022-10-15T06:07:36.677Z,95
2022-10-15T06:11:03.846Z,95
2022-10-15T06:14:27.100Z,96
2022-10-15T06:17:52.280Z,96
2022-10-15T06:21:17.457Z,96
2022-10-15T06:24:42.621Z,96
2022-10-15T06:28:07.777Z,96
2022-10-15T06:31:32.963Z,96
2022-10-15T06:34:58.140Z,96
2022-10-15T06:38:23.292Z,96
2022-10-15T06:41:48.498Z,96
2022-10-15T06:45:14.857Z,97
2022-10-15T06:48:38.827Z,97
2022-10-15T06:52:04.098Z,97
2022-10-15T06:55:29.294Z,97
2022-10-15T06:58:54.946Z,97
2022-10-15T07:02:20.137Z,97
2022-10-15T07:05:45.259Z,97
2022-10-15T07:09:10.443Z,97
2022-10-15T07:12:35.625Z,97
2022-10-15T07:16:00.809Z,97
2022-10-15T07:19:26.020Z,97
2022-10-15T07:22:51.909Z,97
2022-10-15T07:26:17.098Z,97
2022-10-15T07:29:42.278Z,97
2022-10-15T07:33:07.614Z,97
2022-10-15T07:36:32.819Z,97
2022-10-15T07:39:57.968Z,97
2022-10-15T07:43:23.144Z,97
2022-10-15T07:46:48.315Z,97
2022-10-15T07:50:13.496Z,97
2022-10-15T07:53:38.730Z,97
2022-10-15T07:57:03.870Z,97
2022-10-15T08:00:29.162Z,97
2022-10-15T08:03:54.269Z,96
2022-10-15T08:07:19.430Z,96
2022-10-15T08:10:44.628Z,97
2022-10-15T08:14:09.769Z,97
2022-10-15T08:17:34.914Z,97
2022-10-15T08:21:00.114Z,97
2022-10-15T08:24:25.356Z,96
2022-10-15T08:27:50.574Z,96
2022-10-15T08:31:15.767Z,97
2022-10-15T08:34:40.963Z,97
2022-10-15T08:38:06.193Z,96
2022-10-15T08:41:31.340Z,96
2022-10-15T08:44:56.538Z,96
2022-10-15T08:48:21.696Z,96
2022-10-15T08:51:46.869Z,97
2022-10-15T08:55:12.088Z,97
2022-10-15T08:58:38.315Z,97
2022-10-15T09:02:02.463Z,96
2022-10-15T09:05:27.618Z,96
2022-10-15T09:08:52.825Z,96
2022-10-15T09:12:18.003Z,96
2022-10-15T09:15:43.184Z,96
2022-10-15T09:19:08.399Z,96
2022-10-15T09:22:33.559Z,96
2022-10-15T09:25:58.730Z,96
2022-10-15T09:29:23.943Z,96
2022-10-15T09:32:50.557Z,96
2022-10-15T09:36:14.323Z,97
2022-10-15T09:39:39.479Z,96
2022-10-15T09:43:04.694Z,95
2022-10-15T09:46:29.856Z,95
2022-10-15T09:49:55.014Z,95
2022-10-15T09:53:22.211Z,95
2022-10-15T09:56:45.345Z,95
2022-10-15T10:00:10.597Z,94
2022-10-15T10:03:35.706Z,95
2022-10-15T10:07:00.886Z,94
2022-10-15T10:10:26.081Z,94
2022-10-15T10:13:51.222Z,93
2022-10-15T10:17:16.399Z,93
2022-10-15T10:20:41.556Z,94
2022-10-15T10:24:06.728Z,94
2022-10-15T10:27:31.923Z,93
2022-10-15T10:30:57.071Z,93
2022-10-15T10:34:22.262Z,93
2022-10-15T10:37:47.429Z,93
2022-10-15T10:41:12.608Z,92
2022-10-15T10:44:37.788Z,91
2022-10-15T10:48:02.926Z,92
2022-10-15T10:51:28.109Z,92
2022-10-15T10:54:53.263Z,92
2022-10-15T10:58:19.402Z,93
2022-10-15T11:01:43.619Z,93
2022-10-15T11:05:08.747Z,93
2022-10-15T11:08:33.920Z,93
2022-10-15T11:12:16.448Z,94
2022-10-15T11:16:02.618Z,93
2022-10-15T11:19:50.720Z,93
2022-10-15T11:22:52.935Z,93
2022-10-15T11:26:18.138Z,92
2022-10-15T11:29:43.261Z,92
2022-10-15T11:33:09.314Z,92
2022-10-15T11:36:33.615Z,91
2022-10-15T11:39:58.745Z,91
2022-10-15T11:43:23.900Z,91
2022-10-15T11:46:49.059Z,91
2022-10-15T11:50:14.416Z,91
2022-10-15T11:53:59.826Z,91
2022-10-15T11:57:23.510Z,91
2022-10-15T12:00:48.674Z,91
2022-10-15T12:04:13.865Z,90
2022-10-15T12:07:39.005Z,90
2022-10-15T12:11:04.180Z,92
2022-10-15T12:14:29.297Z,91
2022-10-15T12:17:54.453Z,92
2022-10-15T12:21:19.628Z,92
2022-10-15T12:24:44.936Z,91
2022-10-15T12:28:10.125Z,91
2022-10-15T12:31:38.450Z,90
2022-10-15T12:35:00.516Z,91
2022-10-15T12:38:25.696Z,90
2022-10-15T12:41:50.902Z,89
2022-10-15T12:45:16.106Z,89
2022-10-15T12:48:41.259Z,89
2022-10-15T12:52:06.453Z,89
2022-10-15T12:55:31.631Z,89
2022-10-15T12:58:56.813Z,89
2022-10-15T13:02:22.014Z,89
2022-10-15T13:05:48.905Z,89
2022-10-15T13:09:12.361Z,89
2022-10-15T13:12:37.536Z,89
2022-10-15T13:16:02.708Z,90
2022-10-15T13:19:28.033Z,90
2022-10-15T13:22:58.409Z,90
2022-10-15T13:26:18.440Z,89
2022-10-15T13:29:43.598Z,89
2022-10-15T13:33:08.730Z,90
2022-10-15T13:36:33.934Z,89
2022-10-15T13:40:00.604Z,89
2022-10-15T13:43:24.337Z,89
2022-10-15T13:46:49.552Z,90
2022-10-15T13:50:14.771Z,90
2022-10-15T13:53:40.002Z,90
2022-10-15T13:57:05.188Z,89
2022-10-15T14:00:30.427Z,89
2022-10-15T14:03:55.586Z,89
2022-10-15T14:07:21.004Z,90
2022-10-15T14:10:46.255Z,90
2022-10-15T14:14:12.282Z,90
2022-10-15T14:17:39.787Z,90
2022-10-15T14:21:05.021Z,90
2022-10-15T14:24:30.215Z,90
2022-10-15T14:27:55.395Z,91
2022-10-15T15:04:23.356Z,93
2022-10-15T15:07:48.509Z,93
2022-10-15T15:11:13.723Z,93
2022-10-15T15:14:38.965Z,93
2022-10-15T15:18:04.119Z,93
2022-10-15T15:21:29.307Z,93
2022-10-15T15:24:54.461Z,93
2022-10-15T15:28:19.679Z,93
2022-10-15T15:31:44.809Z,93
2022-10-15T15:35:09.985Z,93
2022-10-15T15:42:00.314Z,93
2022-10-15T15:45:25.481Z,93
2022-10-15T15:48:50.644Z,93
2022-10-15T15:52:15.818Z,93
2022-10-15T15:55:41.029Z,93
2022-10-15T15:59:06.247Z,93
2022-10-15T16:02:31.404Z,92
2022-10-15T16:05:56.558Z,92
2022-10-15T16:09:21.738Z,93
2022-10-15T16:12:46.967Z,93
2022-10-15T16:16:12.127Z,93
2022-10-15T16:19:37.288Z,93
2022-10-15T16:23:02.489Z,93
2022-10-15T16:26:27.624Z,93
2022-10-15T16:29:52.813Z,93
2022-10-15T16:33:17.945Z,93
2022-10-15T16:36:43.131Z,94
2022-10-15T16:40:08.309Z,94
2022-10-15T16:43:33.478Z,94
2022-10-15T16:46:58.698Z,94
2022-10-15T16:50:23.805Z,95
2022-10-15T16:53:48.966Z,95
2022-10-15T16:57:14.136Z,95
2022-10-15T17:04:04.540Z,95
2022-10-15T17:07:29.708Z,95
2022-10-15T17:10:54.895Z,95
2022-10-15T17:14:20.029Z,95
2022-10-15T17:17:45.197Z,95
2022-10-15T17:21:10.387Z,95
2022-10-15T17:24:35.567Z,95
2022-10-15T17:28:00.805Z,94
2022-10-15T17:31:25.897Z,94
2022-10-15T17:34:51.099Z,94
2022-10-15T17:38:17.984Z,94
2022-10-15T17:41:41.463Z,94
2022-10-15T17:45:06.636Z,94
2022-10-15T17:48:31.825Z,94
2022-10-15T17:51:57.000Z,95
2022-10-15T17:55:22.185Z,95
2022-10-15T17:58:47.349Z,95
2022-10-15T18:02:12.531Z,95
2022-10-15T18:05:37.738Z,95
2022-10-15T18:09:02.920Z,95
2022-10-15T18:12:28.118Z,95
2022-10-15T18:15:53.254Z,96
2022-10-15T18:19:18.464Z,96
2022-10-15T18:22:43.632Z,96
2022-10-15T18:26:08.802Z,96
2022-10-15T18:29:34.001Z,96
2022-10-15T18:32:59.139Z,96
2022-10-15T18:36:24.299Z,97
2022-10-15T18:39:49.475Z,97
2022-10-15T18:43:17.387Z,97
2022-10-15T18:46:39.887Z,97
2022-10-15T18:50:05.013Z,97
2022-10-15T18:53:30.172Z,97
2022-10-15T18:56:55.361Z,97
2022-10-15T19:00:20.509Z,97
2022-10-15T19:03:45.713Z,98
2022-10-15T19:07:10.885Z,98
2022-10-15T19:10:36.046Z,98
2022-10-15T19:14:01.235Z,98
2022-10-15T19:17:26.385Z,98
2022-10-15T19:20:51.550Z,98
2022-10-15T19:24:16.696Z,98
2022-10-15T19:27:41.929Z,97
2022-10-15T19:31:07.087Z,97
2022-10-15T19:34:32.271Z,97
2022-10-15T19:37:57.481Z,97
2022-10-15T19:41:22.636Z,96
2022-10-15T19:44:47.797Z,96
2022-10-15T19:48:12.992Z,96
2022-10-15T19:51:38.177Z,96
2022-10-15T19:55:03.363Z,96
2022-10-15T19:58:28.493Z,96
2022-10-15T20:01:53.724Z,96
2022-10-15T20:05:18.912Z,96
2022-10-15T20:08:44.100Z,96
2022-10-15T20:12:09.341Z,95
2022-10-15T20:15:34.499Z,95
2022-10-15T20:18:59.677Z,95
2022-10-15T20:22:25.026Z,95
2022-10-15T20:25:50.032Z,95
2022-10-15T20:29:15.212Z,95
2022-10-15T20:32:44.643Z,95
2022-10-15T20:36:10.647Z,95
2022-10-15T20:39:35.005Z,95
2022-10-15T20:43:00.185Z,95
2022-10-15T20:46:25.401Z,95
2022-10-15T20:49:50.542Z,95
2022-10-15T20:53:15.720Z,95
2022-10-15T20:56:40.891Z,95
2022-10-15T21:00:06.080Z,95
2022-10-15T21:03:31.269Z,96
2022-10-15T21:06:56.430Z,96
2022-10-15T21:10:21.595Z,96
2022-10-15T21:13:46.782Z,96
2022-10-15T21:17:11.970Z,96
2022-10-15T21:20:37.193Z,96
2022-10-15T21:24:02.323Z,96
2022-10-15T21:27:27.812Z,96
2022-10-15T21:30:52.681Z,96
2022-10-15T21:34:17.856Z,96
2022-10-15T21:37:43.075Z,96
2022-10-15T21:41:08.241Z,96
2022-10-15T21:44:33.412Z,96
2022-10-15T21:47:58.562Z,96
2022-10-15T21:51:23.720Z,96
2022-10-15T21:54:48.922Z,96
2022-10-15T21:58:14.058Z,96
2022-10-15T22:01:39.275Z,96
2022-10-15T22:05:04.384Z,96
2022-10-15T22:08:29.585Z,96
2022-10-15T22:11:54.801Z,96
2022-10-15T22:15:19.955Z,96
2022-10-15T22:18:45.129Z,97
2022-10-15T22:22:10.268Z,97
2022-10-15T22:25:35.422Z,97
2022-10-15T22:29:00.718Z,97
2022-10-15T22:32:26.083Z,97
2022-10-15T22:35:50.947Z,98
2022-10-15T22:39:16.154Z,98
2022-10-15T22:42:41.325Z,98
2022-10-15T22:46:06.522Z,98
2022-10-15T22:49:31.647Z,97
2022-10-15T22:52:56.820Z,97
2022-10-15T22:56:22.002Z,97
2022-10-15T22:59:47.173Z,97
2022-10-15T23:03:12.385Z,97
2022-10-15T23:06:37.517Z,97
2022-10-15T23:10:02.712Z,97
2022-10-15T23:13:27.904Z,97
2022-10-15T23:16:53.062Z,97
2022-10-15T23:20:18.241Z,97
2022-10-15T23:23:43.415Z,97
2022-10-15T23:27:08.565Z,97
2022-10-15T23:30:33.760Z,97
2022-10-15T23:33:58.942Z,97
2022-10-15T23:37:24.336Z,97
2022-10-15T23:40:49.252Z,97
2022-10-15T23:44:14.402Z,97
2022-10-15T23:47:39.561Z,97
2022-10-15T23:51:04.744Z,96
2022-10-15T23:54:29.934Z,96
2022-10-15T23:57:55.078Z,95
